sensor_id;sensor_type;location;lat;lon;timestamp;temperature;humidity
22633;DHT22;11483;55.828;37.488;2023-02-15T00:01:56;-0.80;99.90
22633;DHT22;11483;55.828;37.488;2023-02-15T00:04:24;-0.90;99.90
22633;DHT22;11483;55.828;37.488;2023-02-15T00:07:10;-0.80;99.90
22633;DHT22;11483;55.828;37.488;2023-02-15T00:09:36;-0.70;99.90
22633;DHT22;11483;55.828;37.488;2023-02-15T00:12:02;-0.70;99.90
22633;DHT22;11483;55.828;37.488;2023-02-15T00:14:27;-0.80;99.90
22633;DHT22;11483;55.828;37.488;2023-02-15T00:16:53;-0.70;99.90
22633;DHT22;11483;55.828;37.488;2023-02-15T00:19:21;-0.70;99.90
22633;DHT22;11483;55.828;37.488;2023-02-15T00:21:48;-0.70;99.90
22633;DHT22;11483;55.828;37.488;2023-02-15T00:24:16;-0.80;99.90
22633;DHT22;11483;55.828;37.488;2023-02-15T00:26:42;-0.70;99.90
22633;DHT22;11483;55.828;37.488;2023-02-15T00:29:10;-0.80;99.90
22633;DHT22;11483;55.828;37.488;2023-02-15T00:31:36;-0.80;99.90
22633;DHT22;11483;55.828;37.488;2023-02-15T00:34:14;-0.80;99.90
22633;DHT22;11483;55.828;37.488;2023-02-15T00:36:41;-0.70;99.90
22633;DHT22;11483;55.828;37.488;2023-02-15T00:39:07;-0.80;99.90
22633;DHT22;11483;55.828;37.488;2023-02-15T00:41:33;-0.80;99.90
22633;DHT22;11483;55.828;37.488;2023-02-15T00:43:59;-0.80;99.90
22633;DHT22;11483;55.828;37.488;2023-02-15T00:46:25;-0.90;99.90
22633;DHT22;11483;55.828;37.488;2023-02-15T00:48:51;-0.80;99.90
22633;DHT22;11483;55.828;37.488;2023-02-15T00:51:17;-0.80;99.90
22633;DHT22;11483;55.828;37.488;2023-02-15T00:53:43;-0.80;99.90
22633;DHT22;11483;55.828;37.488;2023-02-15T00:56:12;-0.90;99.90
22633;DHT22;11483;55.828;37.488;2023-02-15T00:58:38;-0.80;99.90
22633;DHT22;11483;55.828;37.488;2023-02-15T01:01:07;-0.80;99.90
22633;DHT22;11483;55.828;37.488;2023-02-15T01:03:33;-0.90;99.90
22633;DHT22;11483;55.828;37.488;2023-02-15T01:05:59;-0.90;99.90
22633;DHT22;11483;55.828;37.488;2023-02-15T01:08:25;-0.90;99.90
22633;DHT22;11483;55.828;37.488;2023-02-15T01:10:51;-0.80;99.90
22633;DHT22;11483;55.828;37.488;2023-02-15T01:13:17;-0.80;99.90
22633;DHT22;11483;55.828;37.488;2023-02-15T01:15:43;-0.90;99.90
22633;DHT22;11483;55.828;37.488;2023-02-15T01:18:10;-0.90;99.90
22633;DHT22;11483;55.828;37.488;2023-02-15T01:20:39;-0.90;99.90
22633;DHT22;11483;55.828;37.488;2023-02-15T01:23:07;-0.80;99.90
22633;DHT22;11483;55.828;37.488;2023-02-15T01:25:34;-0.90;99.90
22633;DHT22;11483;55.828;37.488;2023-02-15T01:28:01;-0.90;99.90
22633;DHT22;11483;55.828;37.488;2023-02-15T01:30:26;-0.90;99.90
22633;DHT22;11483;55.828;37.488;2023-02-15T01:32:52;-0.80;99.90
22633;DHT22;11483;55.828;37.488;2023-02-15T01:35:18;-0.80;99.90
22633;DHT22;11483;55.828;37.488;2023-02-15T01:37:44;-0.90;99.90
22633;DHT22;11483;55.828;37.488;2023-02-15T01:40:16;-0.90;99.90
22633;DHT22;11483;55.828;37.488;2023-02-15T01:42:42;-1.00;99.90
22633;DHT22;11483;55.828;37.488;2023-02-15T01:45:25;-1.00;99.90
22633;DHT22;11483;55.828;37.488;2023-02-15T01:50:36;-0.90;99.90
22633;DHT22;11483;55.828;37.488;2023-02-15T01:53:22;-1.00;99.90
22633;DHT22;11483;55.828;37.488;2023-02-15T01:56:11;-0.90;99.90
22633;DHT22;11483;55.828;37.488;2023-02-15T01:58:40;-0.90;99.90
22633;DHT22;11483;55.828;37.488;2023-02-15T02:01:07;-0.90;99.90
22633;DHT22;11483;55.828;37.488;2023-02-15T02:06:41;-0.90;99.90
22633;DHT22;11483;55.828;37.488;2023-02-15T02:09:07;-1.00;99.90
22633;DHT22;11483;55.828;37.488;2023-02-15T02:11:34;-1.00;99.90
22633;DHT22;11483;55.828;37.488;2023-02-15T02:14:00;-1.00;99.90
22633;DHT22;11483;55.828;37.488;2023-02-15T02:25:54;-1.00;99.90
22633;DHT22;11483;55.828;37.488;2023-02-15T02:34:01;-1.10;99.90
22633;DHT22;11483;55.828;37.488;2023-02-15T02:44:52;-1.10;99.90
22633;DHT22;11483;55.828;37.488;2023-02-15T02:47:29;-1.10;99.90
22633;DHT22;11483;55.828;37.488;2023-02-15T02:50:03;-1.10;99.90
22633;DHT22;11483;55.828;37.488;2023-02-15T02:52:40;-1.10;99.90
22633;DHT22;11483;55.828;37.488;2023-02-15T02:55:28;-1.10;99.90
22633;DHT22;11483;55.828;37.488;2023-02-15T02:58:36;-1.10;99.90
22633;DHT22;11483;55.828;37.488;2023-02-15T03:01:23;-1.10;99.90
22633;DHT22;11483;55.828;37.488;2023-02-15T03:03:52;-1.20;99.90
22633;DHT22;11483;55.828;37.488;2023-02-15T03:06:29;-1.10;99.90
22633;DHT22;11483;55.828;37.488;2023-02-15T03:09:00;-1.10;99.90
22633;DHT22;11483;55.828;37.488;2023-02-15T03:11:27;-1.20;99.90
22633;DHT22;11483;55.828;37.488;2023-02-15T03:13:53;-1.10;99.90
22633;DHT22;11483;55.828;37.488;2023-02-15T03:16:19;-1.20;99.90
22633;DHT22;11483;55.828;37.488;2023-02-15T03:19:16;-1.20;99.90
22633;DHT22;11483;55.828;37.488;2023-02-15T03:21:49;-1.30;99.90
22633;DHT22;11483;55.828;37.488;2023-02-15T03:24:27;-1.30;99.90
22633;DHT22;11483;55.828;37.488;2023-02-15T03:26:57;-1.40;99.90
22633;DHT22;11483;55.828;37.488;2023-02-15T03:29:26;-1.50;99.90
22633;DHT22;11483;55.828;37.488;2023-02-15T03:32:01;-1.50;99.90
22633;DHT22;11483;55.828;37.488;2023-02-15T03:34:28;-1.50;99.90
22633;DHT22;11483;55.828;37.488;2023-02-15T03:37:19;-1.50;99.90
22633;DHT22;11483;55.828;37.488;2023-02-15T03:42:33;-1.50;99.90
22633;DHT22;11483;55.828;37.488;2023-02-15T03:45:08;-1.70;99.90
22633;DHT22;11483;55.828;37.488;2023-02-15T03:47:44;-1.70;99.90
22633;DHT22;11483;55.828;37.488;2023-02-15T03:50:18;-1.70;99.90
22633;DHT22;11483;55.828;37.488;2023-02-15T03:53:07;-1.70;99.90
22633;DHT22;11483;55.828;37.488;2023-02-15T03:55:35;-1.70;99.90
22633;DHT22;11483;55.828;37.488;2023-02-15T03:58:01;-1.60;99.90
22633;DHT22;11483;55.828;37.488;2023-02-15T04:01:03;-1.70;99.90
22633;DHT22;11483;55.828;37.488;2023-02-15T04:03:57;-1.60;99.90
22633;DHT22;11483;55.828;37.488;2023-02-15T04:06:25;-1.60;99.90
22633;DHT22;11483;55.828;37.488;2023-02-15T04:08:51;-1.60;99.90
22633;DHT22;11483;55.828;37.488;2023-02-15T04:11:35;-1.60;99.90
22633;DHT22;11483;55.828;37.488;2023-02-15T04:14:01;-1.60;99.90
22633;DHT22;11483;55.828;37.488;2023-02-15T04:16:47;-1.60;99.90
22633;DHT22;11483;55.828;37.488;2023-02-15T04:19:12;-1.60;99.90
22633;DHT22;11483;55.828;37.488;2023-02-15T04:21:57;-1.60;99.90
22633;DHT22;11483;55.828;37.488;2023-02-15T04:24:41;-1.60;99.90
22633;DHT22;11483;55.828;37.488;2023-02-15T04:27:25;-1.70;99.90
22633;DHT22;11483;55.828;37.488;2023-02-15T04:29:51;-1.70;99.90
22633;DHT22;11483;55.828;37.488;2023-02-15T04:32:17;-1.60;99.90
22633;DHT22;11483;55.828;37.488;2023-02-15T04:34:43;-1.70;99.90
22633;DHT22;11483;55.828;37.488;2023-02-15T04:37:08;-1.70;99.90
22633;DHT22;11483;55.828;37.488;2023-02-15T04:39:35;-1.70;99.90
22633;DHT22;11483;55.828;37.488;2023-02-15T04:42:01;-1.70;99.90
22633;DHT22;11483;55.828;37.488;2023-02-15T04:44:27;-1.70;99.90
22633;DHT22;11483;55.828;37.488;2023-02-15T04:46:53;-1.70;99.90
22633;DHT22;11483;55.828;37.488;2023-02-15T04:49:20;-1.70;99.90
22633;DHT22;11483;55.828;37.488;2023-02-15T04:51:46;-1.80;99.90
22633;DHT22;11483;55.828;37.488;2023-02-15T04:54:11;-1.70;99.90
22633;DHT22;11483;55.828;37.488;2023-02-15T04:56:38;-1.70;99.90
22633;DHT22;11483;55.828;37.488;2023-02-15T04:59:05;-1.80;99.90
22633;DHT22;11483;55.828;37.488;2023-02-15T05:01:31;-1.80;99.90
22633;DHT22;11483;55.828;37.488;2023-02-15T05:03:56;-1.80;99.90
22633;DHT22;11483;55.828;37.488;2023-02-15T05:06:22;-1.80;99.90
22633;DHT22;11483;55.828;37.488;2023-02-15T05:08:48;-1.80;99.90
22633;DHT22;11483;55.828;37.488;2023-02-15T05:11:14;-1.80;99.90
22633;DHT22;11483;55.828;37.488;2023-02-15T05:13:40;-1.80;99.90
22633;DHT22;11483;55.828;37.488;2023-02-15T05:16:05;-1.90;99.90
22633;DHT22;11483;55.828;37.488;2023-02-15T05:18:32;-1.90;99.90
22633;DHT22;11483;55.828;37.488;2023-02-15T05:20:58;-1.90;99.90
22633;DHT22;11483;55.828;37.488;2023-02-15T05:23:24;-1.80;99.90
22633;DHT22;11483;55.828;37.488;2023-02-15T05:25:50;-1.80;99.90
22633;DHT22;11483;55.828;37.488;2023-02-15T05:28:36;-1.90;99.90
22633;DHT22;11483;55.828;37.488;2023-02-15T05:33:28;-2.00;99.90
22633;DHT22;11483;55.828;37.488;2023-02-15T05:35:53;-2.00;99.90
22633;DHT22;11483;55.828;37.488;2023-02-15T05:38:19;-1.90;99.90
22633;DHT22;11483;55.828;37.488;2023-02-15T05:40:45;-1.90;99.90
22633;DHT22;11483;55.828;37.488;2023-02-15T05:43:11;-1.90;99.90
22633;DHT22;11483;55.828;37.488;2023-02-15T05:45:37;-2.00;99.90
22633;DHT22;11483;55.828;37.488;2023-02-15T05:48:02;-1.90;99.90
22633;DHT22;11483;55.828;37.488;2023-02-15T05:50:28;-1.90;99.90
22633;DHT22;11483;55.828;37.488;2023-02-15T05:52:54;-1.90;99.90
22633;DHT22;11483;55.828;37.488;2023-02-15T05:55:20;-1.90;99.90
22633;DHT22;11483;55.828;37.488;2023-02-15T05:57:46;-1.90;99.90
22633;DHT22;11483;55.828;37.488;2023-02-15T06:00:13;-1.90;99.90
22633;DHT22;11483;55.828;37.488;2023-02-15T06:02:39;-1.90;99.90
22633;DHT22;11483;55.828;37.488;2023-02-15T06:05:06;-1.80;99.90
22633;DHT22;11483;55.828;37.488;2023-02-15T06:07:33;-1.90;99.90
22633;DHT22;11483;55.828;37.488;2023-02-15T06:09:58;-2.00;99.90
22633;DHT22;11483;55.828;37.488;2023-02-15T06:12:24;-2.10;99.90
22633;DHT22;11483;55.828;37.488;2023-02-15T06:14:50;-1.90;99.90
22633;DHT22;11483;55.828;37.488;2023-02-15T06:17:16;-1.90;99.90
22633;DHT22;11483;55.828;37.488;2023-02-15T06:19:42;-1.90;99.90
22633;DHT22;11483;55.828;37.488;2023-02-15T06:22:08;-1.90;99.90
22633;DHT22;11483;55.828;37.488;2023-02-15T06:24:34;-1.80;99.90
22633;DHT22;11483;55.828;37.488;2023-02-15T06:27:00;-1.80;99.90
22633;DHT22;11483;55.828;37.488;2023-02-15T06:29:26;-1.80;99.90
22633;DHT22;11483;55.828;37.488;2023-02-15T06:31:52;-1.80;99.90
22633;DHT22;11483;55.828;37.488;2023-02-15T06:34:18;-1.80;99.90
22633;DHT22;11483;55.828;37.488;2023-02-15T06:36:44;-1.80;99.90
22633;DHT22;11483;55.828;37.488;2023-02-15T06:39:09;-1.70;99.90
22633;DHT22;11483;55.828;37.488;2023-02-15T06:41:35;-1.60;99.90
22633;DHT22;11483;55.828;37.488;2023-02-15T06:44:01;-1.60;99.90
22633;DHT22;11483;55.828;37.488;2023-02-15T06:46:27;-1.60;99.90
22633;DHT22;11483;55.828;37.488;2023-02-15T06:48:53;-1.60;99.90
22633;DHT22;11483;55.828;37.488;2023-02-15T06:51:19;-1.60;99.90
22633;DHT22;11483;55.828;37.488;2023-02-15T06:53:45;-1.60;99.90
22633;DHT22;11483;55.828;37.488;2023-02-15T06:56:11;-1.60;99.90
22633;DHT22;11483;55.828;37.488;2023-02-15T06:58:38;-1.60;99.90
22633;DHT22;11483;55.828;37.488;2023-02-15T07:01:05;-1.60;99.90
22633;DHT22;11483;55.828;37.488;2023-02-15T07:03:32;-1.60;99.90
22633;DHT22;11483;55.828;37.488;2023-02-15T07:06:00;-1.60;99.90
22633;DHT22;11483;55.828;37.488;2023-02-15T07:08:26;-1.50;99.90
22633;DHT22;11483;55.828;37.488;2023-02-15T07:10:53;-1.50;99.90
22633;DHT22;11483;55.828;37.488;2023-02-15T07:13:20;-1.40;99.90
22633;DHT22;11483;55.828;37.488;2023-02-15T07:15:47;-1.50;99.90
22633;DHT22;11483;55.828;37.488;2023-02-15T07:18:13;-1.50;99.90
22633;DHT22;11483;55.828;37.488;2023-02-15T07:20:40;-1.40;99.90
22633;DHT22;11483;55.828;37.488;2023-02-15T07:23:07;-1.20;99.90
22633;DHT22;11483;55.828;37.488;2023-02-15T07:25:34;-1.20;99.90
22633;DHT22;11483;55.828;37.488;2023-02-15T07:28:01;-1.20;99.90
22633;DHT22;11483;55.828;37.488;2023-02-15T07:30:28;-1.10;99.90
22633;DHT22;11483;55.828;37.488;2023-02-15T07:32:57;-1.10;99.90
22633;DHT22;11483;55.828;37.488;2023-02-15T07:35:49;-1.10;99.90
22633;DHT22;11483;55.828;37.488;2023-02-15T07:38:15;-1.10;99.90
22633;DHT22;11483;55.828;37.488;2023-02-15T07:40:42;-1.20;99.90
22633;DHT22;11483;55.828;37.488;2023-02-15T07:43:08;-1.10;99.90
22633;DHT22;11483;55.828;37.488;2023-02-15T07:45:34;-1.10;99.90
22633;DHT22;11483;55.828;37.488;2023-02-15T07:48:04;-1.20;99.90
22633;DHT22;11483;55.828;37.488;2023-02-15T07:50:30;-1.20;99.90
22633;DHT22;11483;55.828;37.488;2023-02-15T07:52:56;-1.10;99.90
22633;DHT22;11483;55.828;37.488;2023-02-15T07:55:22;-0.90;99.90
22633;DHT22;11483;55.828;37.488;2023-02-15T07:57:49;-1.00;99.90
22633;DHT22;11483;55.828;37.488;2023-02-15T08:00:17;-0.90;99.90
22633;DHT22;11483;55.828;37.488;2023-02-15T08:02:50;-0.90;99.90
22633;DHT22;11483;55.828;37.488;2023-02-15T08:05:37;-0.90;99.90
22633;DHT22;11483;55.828;37.488;2023-02-15T08:08:03;-1.00;99.90
22633;DHT22;11483;55.828;37.488;2023-02-15T08:10:30;-1.00;99.90
22633;DHT22;11483;55.828;37.488;2023-02-15T08:13:14;-1.00;99.90
22633;DHT22;11483;55.828;37.488;2023-02-15T08:15:40;-0.80;99.90
22633;DHT22;11483;55.828;37.488;2023-02-15T08:18:12;-0.80;99.90
22633;DHT22;11483;55.828;37.488;2023-02-15T08:20:38;-0.80;99.90
22633;DHT22;11483;55.828;37.488;2023-02-15T08:23:04;-0.80;99.90
22633;DHT22;11483;55.828;37.488;2023-02-15T08:25:30;-0.80;99.90
22633;DHT22;11483;55.828;37.488;2023-02-15T08:27:56;-0.80;99.90
22633;DHT22;11483;55.828;37.488;2023-02-15T08:30:21;-0.70;99.90
22633;DHT22;11483;55.828;37.488;2023-02-15T08:32:48;-0.70;99.90
22633;DHT22;11483;55.828;37.488;2023-02-15T08:35:13;-0.70;99.90
22633;DHT22;11483;55.828;37.488;2023-02-15T08:37:39;-0.70;99.90
22633;DHT22;11483;55.828;37.488;2023-02-15T08:40:05;-0.60;99.90
22633;DHT22;11483;55.828;37.488;2023-02-15T08:42:33;-0.60;99.90
22633;DHT22;11483;55.828;37.488;2023-02-15T08:44:59;-0.50;99.90
22633;DHT22;11483;55.828;37.488;2023-02-15T08:47:25;-0.40;99.90
22633;DHT22;11483;55.828;37.488;2023-02-15T08:49:51;-0.50;99.90
22633;DHT22;11483;55.828;37.488;2023-02-15T08:52:17;-0.60;99.90
22633;DHT22;11483;55.828;37.488;2023-02-15T08:54:43;-0.60;99.90
22633;DHT22;11483;55.828;37.488;2023-02-15T08:57:09;-0.50;99.90
22633;DHT22;11483;55.828;37.488;2023-02-15T08:59:35;-0.40;99.90
22633;DHT22;11483;55.828;37.488;2023-02-15T09:02:01;-0.50;99.90
22633;DHT22;11483;55.828;37.488;2023-02-15T09:04:28;-0.30;99.90
22633;DHT22;11483;55.828;37.488;2023-02-15T09:06:54;-0.20;99.90
22633;DHT22;11483;55.828;37.488;2023-02-15T09:09:21;-0.10;99.90
22633;DHT22;11483;55.828;37.488;2023-02-15T09:11:49;0.00;99.90
22633;DHT22;11483;55.828;37.488;2023-02-15T09:14:18;0.00;99.90
22633;DHT22;11483;55.828;37.488;2023-02-15T09:16:46;0.00;99.90
22633;DHT22;11483;55.828;37.488;2023-02-15T09:19:15;0.30;99.90
22633;DHT22;11483;55.828;37.488;2023-02-15T09:21:41;0.40;99.90
22633;DHT22;11483;55.828;37.488;2023-02-15T09:24:10;0.40;99.90
22633;DHT22;11483;55.828;37.488;2023-02-15T09:26:38;0.30;99.90
22633;DHT22;11483;55.828;37.488;2023-02-15T09:29:08;0.20;99.90
22633;DHT22;11483;55.828;37.488;2023-02-15T09:31:39;0.00;99.90
22633;DHT22;11483;55.828;37.488;2023-02-15T09:34:06;-0.10;99.90
22633;DHT22;11483;55.828;37.488;2023-02-15T09:36:34;-0.10;99.90
22633;DHT22;11483;55.828;37.488;2023-02-15T09:39:10;-0.10;99.90
22633;DHT22;11483;55.828;37.488;2023-02-15T09:49:52;-0.20;99.90
22633;DHT22;11483;55.828;37.488;2023-02-15T10:06:39;-0.40;99.90
22633;DHT22;11483;55.828;37.488;2023-02-15T10:12:11;-0.40;99.90
22633;DHT22;11483;55.828;37.488;2023-02-15T10:14:56;-0.30;99.90
22633;DHT22;11483;55.828;37.488;2023-02-15T10:25:51;-0.30;99.90
22633;DHT22;11483;55.828;37.488;2023-02-15T10:28:42;-0.30;99.90
22633;DHT22;11483;55.828;37.488;2023-02-15T10:31:33;-0.30;99.90
22633;DHT22;11483;55.828;37.488;2023-02-15T10:34:07;-0.30;99.90
22633;DHT22;11483;55.828;37.488;2023-02-15T10:36:48;-0.20;99.90
22633;DHT22;11483;55.828;37.488;2023-02-15T10:48:05;-0.30;99.90
22633;DHT22;11483;55.828;37.488;2023-02-15T10:50:51;-0.30;99.90
22633;DHT22;11483;55.828;37.488;2023-02-15T10:55:52;-0.20;99.90
22633;DHT22;11483;55.828;37.488;2023-02-15T10:58:47;-0.20;99.90
22633;DHT22;11483;55.828;37.488;2023-02-15T11:01:33;-0.30;99.90
22633;DHT22;11483;55.828;37.488;2023-02-15T11:06:29;-0.40;99.90
22633;DHT22;11483;55.828;37.488;2023-02-15T11:09:02;-0.50;99.90
22633;DHT22;11483;55.828;37.488;2023-02-15T11:11:30;-0.60;99.90
22633;DHT22;11483;55.828;37.488;2023-02-15T11:14:00;-0.50;99.90
22633;DHT22;11483;55.828;37.488;2023-02-15T11:16:34;-0.30;99.90
22633;DHT22;11483;55.828;37.488;2023-02-15T11:19:08;-0.40;99.90
22633;DHT22;11483;55.828;37.488;2023-02-15T11:21:48;-0.50;99.90
22633;DHT22;11483;55.828;37.488;2023-02-15T11:24:18;-0.60;99.90
22633;DHT22;11483;55.828;37.488;2023-02-15T11:30:00;-0.70;99.90
22633;DHT22;11483;55.828;37.488;2023-02-15T11:32:34;-0.60;99.90
22633;DHT22;11483;55.828;37.488;2023-02-15T11:35:11;-0.50;99.90
22633;DHT22;11483;55.828;37.488;2023-02-15T11:37:49;-0.40;99.90
22633;DHT22;11483;55.828;37.488;2023-02-15T11:40:35;-0.30;99.90
22633;DHT22;11483;55.828;37.488;2023-02-15T11:43:11;-0.20;99.90
22633;DHT22;11483;55.828;37.488;2023-02-15T11:45:39;-0.10;99.90
22633;DHT22;11483;55.828;37.488;2023-02-15T11:48:12;-0.20;99.90
22633;DHT22;11483;55.828;37.488;2023-02-15T11:50:39;-0.40;99.90
22633;DHT22;11483;55.828;37.488;2023-02-15T11:53:14;-0.40;99.90
22633;DHT22;11483;55.828;37.488;2023-02-15T11:55:43;-0.40;99.90
22633;DHT22;11483;55.828;37.488;2023-02-15T12:06:03;-0.60;99.90
22633;DHT22;11483;55.828;37.488;2023-02-15T12:08:42;-0.60;99.90
22633;DHT22;11483;55.828;37.488;2023-02-15T12:11:15;-0.60;99.90
22633;DHT22;11483;55.828;37.488;2023-02-15T12:16:21;-0.50;99.90
22633;DHT22;11483;55.828;37.488;2023-02-15T12:18:47;-0.50;99.90
22633;DHT22;11483;55.828;37.488;2023-02-15T12:21:29;-0.60;99.90
22633;DHT22;11483;55.828;37.488;2023-02-15T12:24:03;-0.60;99.90
22633;DHT22;11483;55.828;37.488;2023-02-15T12:26:32;-0.50;99.90
22633;DHT22;11483;55.828;37.488;2023-02-15T12:29:00;-0.60;99.90
22633;DHT22;11483;55.828;37.488;2023-02-15T12:31:41;-0.60;99.90
22633;DHT22;11483;55.828;37.488;2023-02-15T12:34:20;-0.50;99.90
22633;DHT22;11483;55.828;37.488;2023-02-15T12:36:49;-0.60;99.90
22633;DHT22;11483;55.828;37.488;2023-02-15T12:42:14;-0.70;99.90
22633;DHT22;11483;55.828;37.488;2023-02-15T12:45:03;-0.70;99.90
22633;DHT22;11483;55.828;37.488;2023-02-15T12:47:31;-0.60;99.90
22633;DHT22;11483;55.828;37.488;2023-02-15T12:50:33;-0.70;99.90
22633;DHT22;11483;55.828;37.488;2023-02-15T12:53:17;-0.70;99.90
22633;DHT22;11483;55.828;37.488;2023-02-15T12:55:58;-0.70;99.90
22633;DHT22;11483;55.828;37.488;2023-02-15T12:58:34;-0.70;99.90
22633;DHT22;11483;55.828;37.488;2023-02-15T13:03:39;-0.60;99.90
22633;DHT22;11483;55.828;37.488;2023-02-15T13:06:18;-0.70;99.90
22633;DHT22;11483;55.828;37.488;2023-02-15T13:08:49;-0.70;99.90
22633;DHT22;11483;55.828;37.488;2023-02-15T13:11:21;-0.70;99.90
22633;DHT22;11483;55.828;37.488;2023-02-15T13:14:02;-0.80;99.90
22633;DHT22;11483;55.828;37.488;2023-02-15T13:16:33;-0.80;99.90
22633;DHT22;11483;55.828;37.488;2023-02-15T13:19:06;-0.90;99.90
22633;DHT22;11483;55.828;37.488;2023-02-15T13:21:37;-0.90;99.90
22633;DHT22;11483;55.828;37.488;2023-02-15T13:24:15;-0.90;99.90
22633;DHT22;11483;55.828;37.488;2023-02-15T13:26:43;-0.80;99.90
22633;DHT22;11483;55.828;37.488;2023-02-15T13:29:21;-0.80;99.90
22633;DHT22;11483;55.828;37.488;2023-02-15T13:31:49;-0.80;99.90
22633;DHT22;11483;55.828;37.488;2023-02-15T13:34:20;-0.70;99.90
22633;DHT22;11483;55.828;37.488;2023-02-15T13:37:01;-0.70;99.90
22633;DHT22;11483;55.828;37.488;2023-02-15T13:42:39;-0.80;99.90
22633;DHT22;11483;55.828;37.488;2023-02-15T13:59:22;-0.90;99.90
22633;DHT22;11483;55.828;37.488;2023-02-15T14:08:36;-1.00;99.90
22633;DHT22;11483;55.828;37.488;2023-02-15T14:17:01;-1.10;99.90
22633;DHT22;11483;55.828;37.488;2023-02-15T14:19:57;-1.10;99.90
22633;DHT22;11483;55.828;37.488;2023-02-15T14:22:44;-1.10;99.90
22633;DHT22;11483;55.828;37.488;2023-02-15T14:30:49;-1.20;99.90
22633;DHT22;11483;55.828;37.488;2023-02-15T14:33:31;-1.20;99.90
22633;DHT22;11483;55.828;37.488;2023-02-15T14:35:59;-1.20;99.90
22633;DHT22;11483;55.828;37.488;2023-02-15T14:38:36;-1.20;99.90
22633;DHT22;11483;55.828;37.488;2023-02-15T14:41:10;-1.30;99.90
22633;DHT22;11483;55.828;37.488;2023-02-15T14:48:52;-1.20;99.90
22633;DHT22;11483;55.828;37.488;2023-02-15T14:59:53;-1.20;99.90
22633;DHT22;11483;55.828;37.488;2023-02-15T15:02:48;-1.20;99.90
22633;DHT22;11483;55.828;37.488;2023-02-15T15:05:33;-1.20;99.90
22633;DHT22;11483;55.828;37.488;2023-02-15T15:08:02;-1.20;99.90
22633;DHT22;11483;55.828;37.488;2023-02-15T15:10:40;-1.30;99.90
22633;DHT22;11483;55.828;37.488;2023-02-15T15:16:24;-1.40;99.90
22633;DHT22;11483;55.828;37.488;2023-02-15T15:18:50;-1.30;99.90
22633;DHT22;11483;55.828;37.488;2023-02-15T15:41:03;-1.60;99.90
22633;DHT22;11483;55.828;37.488;2023-02-15T15:46:39;-1.60;99.90
22633;DHT22;11483;55.828;37.488;2023-02-15T15:49:32;-1.50;99.90
22633;DHT22;11483;55.828;37.488;2023-02-15T15:52:03;-1.60;99.90
22633;DHT22;11483;55.828;37.488;2023-02-15T15:54:34;-1.60;99.90
22633;DHT22;11483;55.828;37.488;2023-02-15T15:57:04;-1.50;99.90
22633;DHT22;11483;55.828;37.488;2023-02-15T15:59:33;-1.50;99.90
22633;DHT22;11483;55.828;37.488;2023-02-15T16:02:07;-1.60;99.90
22633;DHT22;11483;55.828;37.488;2023-02-15T16:04:34;-1.60;99.90
22633;DHT22;11483;55.828;37.488;2023-02-15T16:10:05;-1.60;99.90
22633;DHT22;11483;55.828;37.488;2023-02-15T16:12:34;-1.60;99.90
22633;DHT22;11483;55.828;37.488;2023-02-15T16:15:42;-1.60;99.90
22633;DHT22;11483;55.828;37.488;2023-02-15T16:18:18;-1.60;99.90
22633;DHT22;11483;55.828;37.488;2023-02-15T16:20:59;-1.60;99.90
22633;DHT22;11483;55.828;37.488;2023-02-15T16:28:58;-1.60;99.90
22633;DHT22;11483;55.828;37.488;2023-02-15T16:31:24;-1.60;99.90
22633;DHT22;11483;55.828;37.488;2023-02-15T16:33:53;-1.60;99.90
22633;DHT22;11483;55.828;37.488;2023-02-15T16:36:22;-1.70;99.90
22633;DHT22;11483;55.828;37.488;2023-02-15T16:41:26;-1.70;99.90
22633;DHT22;11483;55.828;37.488;2023-02-15T16:43:54;-1.70;99.90
22633;DHT22;11483;55.828;37.488;2023-02-15T16:46:27;-1.60;99.90
22633;DHT22;11483;55.828;37.488;2023-02-15T16:48:56;-1.60;99.90
22633;DHT22;11483;55.828;37.488;2023-02-15T16:51:26;-1.60;99.90
22633;DHT22;11483;55.828;37.488;2023-02-15T16:53:54;-1.60;99.90
22633;DHT22;11483;55.828;37.488;2023-02-15T16:56:29;-1.60;99.90
22633;DHT22;11483;55.828;37.488;2023-02-15T16:58:59;-1.70;99.90
22633;DHT22;11483;55.828;37.488;2023-02-15T17:01:30;-1.70;99.90
22633;DHT22;11483;55.828;37.488;2023-02-15T17:09:56;-1.70;99.90
22633;DHT22;11483;55.828;37.488;2023-02-15T17:12:55;-1.80;99.90
22633;DHT22;11483;55.828;37.488;2023-02-15T17:15:29;-1.80;99.90
22633;DHT22;11483;55.828;37.488;2023-02-15T17:18:16;-1.70;99.90
22633;DHT22;11483;55.828;37.488;2023-02-15T17:20:44;-1.70;99.90
22633;DHT22;11483;55.828;37.488;2023-02-15T17:25:57;-1.60;99.90
22633;DHT22;11483;55.828;37.488;2023-02-15T17:28:26;-1.60;99.90
22633;DHT22;11483;55.828;37.488;2023-02-15T17:30:53;-1.60;99.90
22633;DHT22;11483;55.828;37.488;2023-02-15T17:33:26;-1.60;99.90
22633;DHT22;11483;55.828;37.488;2023-02-15T17:36:11;-1.60;99.90
22633;DHT22;11483;55.828;37.488;2023-02-15T17:38:39;-1.60;99.90
22633;DHT22;11483;55.828;37.488;2023-02-15T17:41:06;-1.60;99.90
22633;DHT22;11483;55.828;37.488;2023-02-15T17:43:32;-1.50;99.90
22633;DHT22;11483;55.828;37.488;2023-02-15T17:45:58;-1.40;99.90
22633;DHT22;11483;55.828;37.488;2023-02-15T17:48:32;-1.40;99.90
22633;DHT22;11483;55.828;37.488;2023-02-15T17:51:00;-1.50;99.90
22633;DHT22;11483;55.828;37.488;2023-02-15T17:53:27;-1.60;99.90
22633;DHT22;11483;55.828;37.488;2023-02-15T17:55:53;-1.60;99.90
22633;DHT22;11483;55.828;37.488;2023-02-15T17:58:19;-1.60;99.90
22633;DHT22;11483;55.828;37.488;2023-02-15T18:00:57;-1.60;99.90
22633;DHT22;11483;55.828;37.488;2023-02-15T18:03:48;-1.70;99.90
22633;DHT22;11483;55.828;37.488;2023-02-15T18:06:34;-1.70;99.90
22633;DHT22;11483;55.828;37.488;2023-02-15T18:09:20;-1.70;99.90
22633;DHT22;11483;55.828;37.488;2023-02-15T18:12:26;-1.80;99.90
22633;DHT22;11483;55.828;37.488;2023-02-15T18:14:53;-1.80;99.90
22633;DHT22;11483;55.828;37.488;2023-02-15T18:17:24;-1.80;99.90
22633;DHT22;11483;55.828;37.488;2023-02-15T18:19:51;-1.90;99.90
22633;DHT22;11483;55.828;37.488;2023-02-15T18:22:19;-1.90;99.90
22633;DHT22;11483;55.828;37.488;2023-02-15T18:24:47;-1.90;99.90
22633;DHT22;11483;55.828;37.488;2023-02-15T18:27:13;-1.90;99.90
22633;DHT22;11483;55.828;37.488;2023-02-15T18:29:40;-1.80;99.90
22633;DHT22;11483;55.828;37.488;2023-02-15T18:32:08;-1.80;99.90
22633;DHT22;11483;55.828;37.488;2023-02-15T18:34:40;-1.80;99.90
22633;DHT22;11483;55.828;37.488;2023-02-15T18:37:11;-1.90;99.90
22633;DHT22;11483;55.828;37.488;2023-02-15T18:39:41;-1.80;99.90
22633;DHT22;11483;55.828;37.488;2023-02-15T18:42:19;-1.80;99.90
22633;DHT22;11483;55.828;37.488;2023-02-15T18:44:46;-1.80;99.90
22633;DHT22;11483;55.828;37.488;2023-02-15T18:47:12;-1.70;99.90
22633;DHT22;11483;55.828;37.488;2023-02-15T18:49:38;-1.70;99.90
22633;DHT22;11483;55.828;37.488;2023-02-15T18:52:04;-1.70;99.90
22633;DHT22;11483;55.828;37.488;2023-02-15T18:54:30;-1.70;99.90
22633;DHT22;11483;55.828;37.488;2023-02-15T18:56:57;-1.80;99.90
22633;DHT22;11483;55.828;37.488;2023-02-15T18:59:26;-1.80;99.90